sensor_id;sensor_type;location;lat;lon;timestamp;temperature;humidity
40828;DHT22;26549;50.918;5.338;2022-07-06T00:01:52;16.80;96.40
40828;DHT22;26549;50.918;5.338;2022-07-06T00:04:20;16.80;96.30
40828;DHT22;26549;50.918;5.338;2022-07-06T00:06:46;16.80;96.30
40828;DHT22;26549;50.918;5.338;2022-07-06T00:09:12;16.70;96.40
40828;DHT22;26549;50.918;5.338;2022-07-06T00:11:38;16.70;96.40
40828;DHT22;26549;50.918;5.338;2022-07-06T00:14:05;16.70;96.40
40828;DHT22;26549;50.918;5.338;2022-07-06T00:16:31;16.70;96.40
40828;DHT22;26549;50.918;5.338;2022-07-06T00:18:57;16.70;96.50
40828;DHT22;26549;50.918;5.338;2022-07-06T00:21:22;16.80;96.30
40828;DHT22;26549;50.918;5.338;2022-07-06T00:23:48;16.80;96.30
40828;DHT22;26549;50.918;5.338;2022-07-06T00:26:14;16.80;96.40
40828;DHT22;26549;50.918;5.338;2022-07-06T00:28:40;16.80;96.30
40828;DHT22;26549;50.918;5.338;2022-07-06T00:31:06;16.70;96.40
40828;DHT22;26549;50.918;5.338;2022-07-06T00:33:32;16.80;96.50
40828;DHT22;26549;50.918;5.338;2022-07-06T00:35:57;16.70;96.50
40828;DHT22;26549;50.918;5.338;2022-07-06T00:38:23;16.70;96.70
40828;DHT22;26549;50.918;5.338;2022-07-06T00:40:49;16.60;96.70
40828;DHT22;26549;50.918;5.338;2022-07-06T00:43:15;16.60;96.80
40828;DHT22;26549;50.918;5.338;2022-07-06T00:45:41;16.60;96.80
40828;DHT22;26549;50.918;5.338;2022-07-06T00:48:07;16.60;96.90
40828;DHT22;26549;50.918;5.338;2022-07-06T00:50:33;16.60;97.00
40828;DHT22;26549;50.918;5.338;2022-07-06T00:53:02;16.60;96.90
40828;DHT22;26549;50.918;5.338;2022-07-06T00:55:30;16.50;97.10
40828;DHT22;26549;50.918;5.338;2022-07-06T00:57:56;16.50;97.10
40828;DHT22;26549;50.918;5.338;2022-07-06T01:00:25;16.50;97.20
40828;DHT22;26549;50.918;5.338;2022-07-06T01:02:52;16.40;97.40
40828;DHT22;26549;50.918;5.338;2022-07-06T01:05:18;16.30;97.60
40828;DHT22;26549;50.918;5.338;2022-07-06T01:07:46;16.30;97.60
40828;DHT22;26549;50.918;5.338;2022-07-06T01:10:14;16.30;97.60
40828;DHT22;26549;50.918;5.338;2022-07-06T01:12:41;16.30;97.70
40828;DHT22;26549;50.918;5.338;2022-07-06T01:15:10;16.30;97.70
40828;DHT22;26549;50.918;5.338;2022-07-06T01:17:37;16.30;97.70
40828;DHT22;26549;50.918;5.338;2022-07-06T01:22:37;16.20;97.80
40828;DHT22;26549;50.918;5.338;2022-07-06T01:25:04;16.20;97.90
40828;DHT22;26549;50.918;5.338;2022-07-06T01:27:30;16.20;98.00
40828;DHT22;26549;50.918;5.338;2022-07-06T01:29:56;16.20;98.00
40828;DHT22;26549;50.918;5.338;2022-07-06T01:32:21;16.10;98.20
40828;DHT22;26549;50.918;5.338;2022-07-06T01:34:47;16.10;98.10
40828;DHT22;26549;50.918;5.338;2022-07-06T01:37:13;16.20;98.00
40828;DHT22;26549;50.918;5.338;2022-07-06T01:39:39;16.20;97.90
40828;DHT22;26549;50.918;5.338;2022-07-06T01:42:05;16.10;98.00
40828;DHT22;26549;50.918;5.338;2022-07-06T01:44:31;15.90;98.30
40828;DHT22;26549;50.918;5.338;2022-07-06T01:46:56;15.90;98.40
40828;DHT22;26549;50.918;5.338;2022-07-06T01:49:22;16.00;98.40
40828;DHT22;26549;50.918;5.338;2022-07-06T01:51:48;15.90;98.40
40828;DHT22;26549;50.918;5.338;2022-07-06T01:54:14;15.90;98.50
40828;DHT22;26549;50.918;5.338;2022-07-06T01:56:39;15.90;98.40
40828;DHT22;26549;50.918;5.338;2022-07-06T01:59:05;15.90;98.40
40828;DHT22;26549;50.918;5.338;2022-07-06T02:01:31;15.90;98.50
40828;DHT22;26549;50.918;5.338;2022-07-06T02:03:57;15.80;98.50
40828;DHT22;26549;50.918;5.338;2022-07-06T02:06:23;15.80;98.70
40828;DHT22;26549;50.918;5.338;2022-07-06T02:08:49;15.70;98.80
40828;DHT22;26549;50.918;5.338;2022-07-06T02:11:17;15.80;98.70
40828;DHT22;26549;50.918;5.338;2022-07-06T02:13:42;15.70;98.70
40828;DHT22;26549;50.918;5.338;2022-07-06T02:16:08;15.70;98.80
40828;DHT22;26549;50.918;5.338;2022-07-06T02:18:34;15.60;98.80
40828;DHT22;26549;50.918;5.338;2022-07-06T02:21:00;15.70;98.80
40828;DHT22;26549;50.918;5.338;2022-07-06T02:23:26;15.70;98.70
40828;DHT22;26549;50.918;5.338;2022-07-06T02:25:52;15.80;98.60
40828;DHT22;26549;50.918;5.338;2022-07-06T02:28:18;15.80;98.60
40828;DHT22;26549;50.918;5.338;2022-07-06T02:30:43;15.70;98.60
40828;DHT22;26549;50.918;5.338;2022-07-06T02:33:09;15.70;98.70
40828;DHT22;26549;50.918;5.338;2022-07-06T02:35:35;15.70;98.70
40828;DHT22;26549;50.918;5.338;2022-07-06T02:38:03;15.70;98.80
40828;DHT22;26549;50.918;5.338;2022-07-06T02:40:29;15.70;98.70
40828;DHT22;26549;50.918;5.338;2022-07-06T02:42:55;15.60;98.80
40828;DHT22;26549;50.918;5.338;2022-07-06T02:45:21;15.60;98.90
40828;DHT22;26549;50.918;5.338;2022-07-06T02:47:46;15.50;99.00
40828;DHT22;26549;50.918;5.338;2022-07-06T02:50:12;15.50;99.00
40828;DHT22;26549;50.918;5.338;2022-07-06T02:52:38;15.40;99.10
40828;DHT22;26549;50.918;5.338;2022-07-06T02:55:04;15.40;99.30
40828;DHT22;26549;50.918;5.338;2022-07-06T02:57:29;15.50;99.30
40828;DHT22;26549;50.918;5.338;2022-07-06T02:59:55;15.50;99.20
40828;DHT22;26549;50.918;5.338;2022-07-06T03:02:21;15.50;99.10
40828;DHT22;26549;50.918;5.338;2022-07-06T03:04:47;15.50;99.30
40828;DHT22;26549;50.918;5.338;2022-07-06T03:07:12;15.30;99.70
40828;DHT22;26549;50.918;5.338;2022-07-06T03:09:38;15.10;99.80
40828;DHT22;26549;50.918;5.338;2022-07-06T03:12:04;15.00;99.90
40828;DHT22;26549;50.918;5.338;2022-07-06T03:14:30;15.10;99.90
40828;DHT22;26549;50.918;5.338;2022-07-06T03:16:56;15.10;99.90
40828;DHT22;26549;50.918;5.338;2022-07-06T03:19:21;15.20;99.90
40828;DHT22;26549;50.918;5.338;2022-07-06T03:21:47;15.20;99.80
40828;DHT22;26549;50.918;5.338;2022-07-06T03:24:13;15.20;99.80
40828;DHT22;26549;50.918;5.338;2022-07-06T03:26:39;15.20;99.70
40828;DHT22;26549;50.918;5.338;2022-07-06T03:29:04;15.20;99.60
40828;DHT22;26549;50.918;5.338;2022-07-06T03:31:30;15.10;99.80
40828;DHT22;26549;50.918;5.338;2022-07-06T03:33:56;15.10;99.80
40828;DHT22;26549;50.918;5.338;2022-07-06T03:36:22;15.20;99.60
40828;DHT22;26549;50.918;5.338;2022-07-06T03:38:48;15.10;99.80
40828;DHT22;26549;50.918;5.338;2022-07-06T03:41:14;15.00;99.80
40828;DHT22;26549;50.918;5.338;2022-07-06T03:43:40;15.00;99.90
40828;DHT22;26549;50.918;5.338;2022-07-06T03:46:05;15.10;99.90
40828;DHT22;26549;50.918;5.338;2022-07-06T03:48:31;15.10;99.70
40828;DHT22;26549;50.918;5.338;2022-07-06T03:50:57;15.10;99.80
40828;DHT22;26549;50.918;5.338;2022-07-06T03:53:23;15.10;99.80
40828;DHT22;26549;50.918;5.338;2022-07-06T03:55:48;15.20;99.70
40828;DHT22;26549;50.918;5.338;2022-07-06T03:58:33;15.10;99.60
40828;DHT22;26549;50.918;5.338;2022-07-06T04:00:59;15.20;99.70
40828;DHT22;26549;50.918;5.338;2022-07-06T04:03:25;15.30;99.70
40828;DHT22;26549;50.918;5.338;2022-07-06T04:05:50;15.20;99.70
40828;DHT22;26549;50.918;5.338;2022-07-06T04:08:16;15.20;99.80
40828;DHT22;26549;50.918;5.338;2022-07-06T04:10:42;15.20;99.80
40828;DHT22;26549;50.918;5.338;2022-07-06T04:13:07;15.30;99.70
40828;DHT22;26549;50.918;5.338;2022-07-06T04:15:33;15.40;99.70
40828;DHT22;26549;50.918;5.338;2022-07-06T04:17:59;15.40;99.60
40828;DHT22;26549;50.918;5.338;2022-07-06T04:20:25;15.40;99.70
40828;DHT22;26549;50.918;5.338;2022-07-06T04:22:53;15.40;99.80
40828;DHT22;26549;50.918;5.338;2022-07-06T04:25:19;15.30;99.80
40828;DHT22;26549;50.918;5.338;2022-07-06T04:27:45;15.20;99.90
40828;DHT22;26549;50.918;5.338;2022-07-06T04:30:11;15.10;99.90
40828;DHT22;26549;50.918;5.338;2022-07-06T04:32:37;14.90;99.90
40828;DHT22;26549;50.918;5.338;2022-07-06T04:35:04;14.90;99.90
40828;DHT22;26549;50.918;5.338;2022-07-06T04:37:30;15.00;99.90
40828;DHT22;26549;50.918;5.338;2022-07-06T04:39:56;14.90;99.90
40828;DHT22;26549;50.918;5.338;2022-07-06T04:42:22;15.00;99.90
40828;DHT22;26549;50.918;5.338;2022-07-06T04:44:48;15.10;99.90
40828;DHT22;26549;50.918;5.338;2022-07-06T04:47:14;15.20;99.90
40828;DHT22;26549;50.918;5.338;2022-07-06T04:49:40;15.30;99.90
40828;DHT22;26549;50.918;5.338;2022-07-06T04:52:06;15.30;99.90
40828;DHT22;26549;50.918;5.338;2022-07-06T04:54:33;15.40;99.90
40828;DHT22;26549;50.918;5.338;2022-07-06T04:56:59;15.40;99.90
40828;DHT22;26549;50.918;5.338;2022-07-06T04:59:25;15.30;99.90
40828;DHT22;26549;50.918;5.338;2022-07-06T05:01:51;15.40;99.90
40828;DHT22;26549;50.918;5.338;2022-07-06T05:04:17;15.50;99.90
40828;DHT22;26549;50.918;5.338;2022-07-06T05:06:46;15.40;99.90
40828;DHT22;26549;50.918;5.338;2022-07-06T05:09:12;15.40;99.90
40828;DHT22;26549;50.918;5.338;2022-07-06T05:11:39;15.50;99.90
40828;DHT22;26549;50.918;5.338;2022-07-06T05:14:05;15.50;99.90
40828;DHT22;26549;50.918;5.338;2022-07-06T05:16:32;15.70;99.90
40828;DHT22;26549;50.918;5.338;2022-07-06T05:18:58;15.80;99.90
40828;DHT22;26549;50.918;5.338;2022-07-06T05:21:24;16.00;99.90
40828;DHT22;26549;50.918;5.338;2022-07-06T05:23:50;16.20;99.90
40828;DHT22;26549;50.918;5.338;2022-07-06T05:26:16;16.40;99.60
40828;DHT22;26549;50.918;5.338;2022-07-06T05:28:42;16.70;99.20
40828;DHT22;26549;50.918;5.338;2022-07-06T05:31:08;16.70;99.10
40828;DHT22;26549;50.918;5.338;2022-07-06T05:33:34;17.20;98.30
40828;DHT22;26549;50.918;5.338;2022-07-06T05:36:00;17.30;98.40
40828;DHT22;26549;50.918;5.338;2022-07-06T05:38:26;17.00;98.40
40828;DHT22;26549;50.918;5.338;2022-07-06T05:40:55;17.30;98.40
40828;DHT22;26549;50.918;5.338;2022-07-06T05:43:25;17.40;96.70
40828;DHT22;26549;50.918;5.338;2022-07-06T05:45:50;17.60;96.80
40828;DHT22;26549;50.918;5.338;2022-07-06T05:48:17;17.80;96.50
40828;DHT22;26549;50.918;5.338;2022-07-06T05:51:01;18.00;96.10
40828;DHT22;26549;50.918;5.338;2022-07-06T05:53:27;18.10;96.40
40828;DHT22;26549;50.918;5.338;2022-07-06T05:55:53;17.90;96.80
40828;DHT22;26549;50.918;5.338;2022-07-06T05:58:19;18.10;97.10
40828;DHT22;26549;50.918;5.338;2022-07-06T06:00:45;18.30;96.20
40828;DHT22;26549;50.918;5.338;2022-07-06T06:03:12;18.20;96.30
40828;DHT22;26549;50.918;5.338;2022-07-06T06:05:38;18.20;96.00
40828;DHT22;26549;50.918;5.338;2022-07-06T06:08:04;18.40;96.30
40828;DHT22;26549;50.918;5.338;2022-07-06T06:10:30;18.30;95.70
40828;DHT22;26549;50.918;5.338;2022-07-06T06:12:56;18.30;95.90
40828;DHT22;26549;50.918;5.338;2022-07-06T06:15:22;17.90;96.90
40828;DHT22;26549;50.918;5.338;2022-07-06T06:17:48;18.10;97.10
40828;DHT22;26549;50.918;5.338;2022-07-06T06:20:15;18.30;96.30
40828;DHT22;26549;50.918;5.338;2022-07-06T06:22:59;18.30;96.20
40828;DHT22;26549;50.918;5.338;2022-07-06T06:25:33;18.40;95.70
40828;DHT22;26549;50.918;5.338;2022-07-06T06:27:59;18.40;95.60
40828;DHT22;26549;50.918;5.338;2022-07-06T06:30:26;18.50;95.40
40828;DHT22;26549;50.918;5.338;2022-07-06T06:33:05;18.50;95.80
40828;DHT22;26549;50.918;5.338;2022-07-06T06:35:31;18.70;95.60
40828;DHT22;26549;50.918;5.338;2022-07-06T06:37:57;18.40;96.10
40828;DHT22;26549;50.918;5.338;2022-07-06T06:40:23;18.60;96.10
40828;DHT22;26549;50.918;5.338;2022-07-06T06:42:49;18.60;95.90
40828;DHT22;26549;50.918;5.338;2022-07-06T06:45:15;18.70;95.50
40828;DHT22;26549;50.918;5.338;2022-07-06T06:47:41;18.90;94.40
40828;DHT22;26549;50.918;5.338;2022-07-06T06:50:07;18.90;94.90
40828;DHT22;26549;50.918;5.338;2022-07-06T06:52:33;19.10;94.40
40828;DHT22;26549;50.918;5.338;2022-07-06T06:54:59;19.10;94.60
40828;DHT22;26549;50.918;5.338;2022-07-06T06:57:26;19.20;94.40
40828;DHT22;26549;50.918;5.338;2022-07-06T06:59:51;19.40;93.70
40828;DHT22;26549;50.918;5.338;2022-07-06T07:02:17;19.70;93.50
40828;DHT22;26549;50.918;5.338;2022-07-06T07:04:43;19.70;93.20
40828;DHT22;26549;50.918;5.338;2022-07-06T07:07:09;19.40;94.30
40828;DHT22;26549;50.918;5.338;2022-07-06T07:09:35;19.30;93.20
40828;DHT22;26549;50.918;5.338;2022-07-06T07:12:01;19.20;93.50
40828;DHT22;26549;50.918;5.338;2022-07-06T07:14:27;19.40;93.30
40828;DHT22;26549;50.918;5.338;2022-07-06T07:16:53;19.10;93.80
40828;DHT22;26549;50.918;5.338;2022-07-06T07:19:19;19.20;94.10
40828;DHT22;26549;50.918;5.338;2022-07-06T07:21:45;19.30;93.80
40828;DHT22;26549;50.918;5.338;2022-07-06T07:24:11;19.50;94.10
40828;DHT22;26549;50.918;5.338;2022-07-06T07:26:37;19.50;93.90
40828;DHT22;26549;50.918;5.338;2022-07-06T07:29:03;19.40;93.30
40828;DHT22;26549;50.918;5.338;2022-07-06T07:31:29;19.50;93.50
40828;DHT22;26549;50.918;5.338;2022-07-06T07:33:55;19.60;93.80
40828;DHT22;26549;50.918;5.338;2022-07-06T07:36:23;19.60;93.80
40828;DHT22;26549;50.918;5.338;2022-07-06T07:38:50;19.40;93.70
40828;DHT22;26549;50.918;5.338;2022-07-06T07:41:15;19.40;92.80
40828;DHT22;26549;50.918;5.338;2022-07-06T07:43:43;19.60;92.00
40828;DHT22;26549;50.918;5.338;2022-07-06T07:46:09;19.60;92.20
40828;DHT22;26549;50.918;5.338;2022-07-06T07:48:35;19.70;92.40
40828;DHT22;26549;50.918;5.338;2022-07-06T07:51:01;19.60;91.80
40828;DHT22;26549;50.918;5.338;2022-07-06T07:53:27;19.60;92.00
40828;DHT22;26549;50.918;5.338;2022-07-06T07:55:53;19.70;91.90
40828;DHT22;26549;50.918;5.338;2022-07-06T07:58:20;19.70;91.80
40828;DHT22;26549;50.918;5.338;2022-07-06T08:00:46;19.70;90.70
40828;DHT22;26549;50.918;5.338;2022-07-06T08:03:12;19.80;90.90
40828;DHT22;26549;50.918;5.338;2022-07-06T08:05:38;19.80;90.90
40828;DHT22;26549;50.918;5.338;2022-07-06T08:08:04;20.00;89.40
40828;DHT22;26549;50.918;5.338;2022-07-06T08:10:30;20.10;88.30
40828;DHT22;26549;50.918;5.338;2022-07-06T08:12:56;20.10;88.70
40828;DHT22;26549;50.918;5.338;2022-07-06T08:15:22;19.90;85.50
40828;DHT22;26549;50.918;5.338;2022-07-06T08:17:48;19.70;85.40
40828;DHT22;26549;50.918;5.338;2022-07-06T08:20:13;19.50;89.20
40828;DHT22;26549;50.918;5.338;2022-07-06T08:22:40;19.70;89.50
40828;DHT22;26549;50.918;5.338;2022-07-06T08:25:08;19.70;89.60
40828;DHT22;26549;50.918;5.338;2022-07-06T08:27:34;20.00;89.90
40828;DHT22;26549;50.918;5.338;2022-07-06T08:30:00;20.20;87.60
40828;DHT22;26549;50.918;5.338;2022-07-06T08:32:26;20.40;87.30
40828;DHT22;26549;50.918;5.338;2022-07-06T08:34:52;20.30;89.10
40828;DHT22;26549;50.918;5.338;2022-07-06T08:37:20;20.40;90.40
40828;DHT22;26549;50.918;5.338;2022-07-06T08:39:46;20.40;90.60
40828;DHT22;26549;50.918;5.338;2022-07-06T08:42:12;20.60;90.80
40828;DHT22;26549;50.918;5.338;2022-07-06T08:44:41;20.80;88.90
40828;DHT22;26549;50.918;5.338;2022-07-06T08:47:10;20.70;89.10
40828;DHT22;26549;50.918;5.338;2022-07-06T08:49:37;20.70;85.80
40828;DHT22;26549;50.918;5.338;2022-07-06T08:52:03;20.50;86.90
40828;DHT22;26549;50.918;5.338;2022-07-06T08:54:30;20.60;85.50
40828;DHT22;26549;50.918;5.338;2022-07-06T08:56:55;20.50;85.80
40828;DHT22;26549;50.918;5.338;2022-07-06T08:59:21;20.40;87.10
40828;DHT22;26549;50.918;5.338;2022-07-06T09:01:47;20.60;88.00
40828;DHT22;26549;50.918;5.338;2022-07-06T09:04:16;20.50;85.10
40828;DHT22;26549;50.918;5.338;2022-07-06T09:06:46;20.60;85.50
40828;DHT22;26549;50.918;5.338;2022-07-06T09:09:20;20.60;85.20
40828;DHT22;26549;50.918;5.338;2022-07-06T09:11:47;20.50;86.50
40828;DHT22;26549;50.918;5.338;2022-07-06T09:14:14;20.70;84.40
40828;DHT22;26549;50.918;5.338;2022-07-06T09:16:40;20.80;85.90
40828;DHT22;26549;50.918;5.338;2022-07-06T09:19:16;20.90;85.00
40828;DHT22;26549;50.918;5.338;2022-07-06T09:21:43;21.00;83.70
40828;DHT22;26549;50.918;5.338;2022-07-06T09:24:11;21.10;82.80
40828;DHT22;26549;50.918;5.338;2022-07-06T09:26:37;21.10;82.50
40828;DHT22;26549;50.918;5.338;2022-07-06T09:29:04;21.10;83.50
40828;DHT22;26549;50.918;5.338;2022-07-06T09:31:33;21.10;83.60
40828;DHT22;26549;50.918;5.338;2022-07-06T09:36:59;21.10;82.40
40828;DHT22;26549;50.918;5.338;2022-07-06T09:39:28;20.90;84.40
40828;DHT22;26549;50.918;5.338;2022-07-06T09:42:04;20.90;83.70
40828;DHT22;26549;50.918;5.338;2022-07-06T09:44:34;21.00;83.80
40828;DHT22;26549;50.918;5.338;2022-07-06T09:47:03;21.20;83.70
40828;DHT22;26549;50.918;5.338;2022-07-06T09:49:30;21.30;82.70
40828;DHT22;26549;50.918;5.338;2022-07-06T09:52:07;21.50;83.20
40828;DHT22;26549;50.918;5.338;2022-07-06T09:54:37;21.50;83.50
40828;DHT22;26549;50.918;5.338;2022-07-06T09:57:05;21.40;83.30
40828;DHT22;26549;50.918;5.338;2022-07-06T09:59:32;21.30;83.40
40828;DHT22;26549;50.918;5.338;2022-07-06T10:02:00;21.30;83.20
40828;DHT22;26549;50.918;5.338;2022-07-06T10:04:27;21.50;84.00
40828;DHT22;26549;50.918;5.338;2022-07-06T10:06:54;21.50;84.20
40828;DHT22;26549;50.918;5.338;2022-07-06T10:09:21;21.40;83.20
40828;DHT22;26549;50.918;5.338;2022-07-06T10:11:49;21.40;83.10
40828;DHT22;26549;50.918;5.338;2022-07-06T10:14:25;21.40;84.20
40828;DHT22;26549;50.918;5.338;2022-07-06T10:16:51;21.50;83.80
40828;DHT22;26549;50.918;5.338;2022-07-06T10:19:20;21.30;84.60
40828;DHT22;26549;50.918;5.338;2022-07-06T10:21:46;21.20;84.50
40828;DHT22;26549;50.918;5.338;2022-07-06T10:24:13;21.10;85.10
40828;DHT22;26549;50.918;5.338;2022-07-06T10:26:40;21.30;84.60
40828;DHT22;26549;50.918;5.338;2022-07-06T10:29:07;21.50;85.40
40828;DHT22;26549;50.918;5.338;2022-07-06T10:31:35;21.60;83.10
40828;DHT22;26549;50.918;5.338;2022-07-06T10:34:04;21.80;82.90
40828;DHT22;26549;50.918;5.338;2022-07-06T10:36:37;21.80;83.30
40828;DHT22;26549;50.918;5.338;2022-07-06T10:39:03;21.90;84.60
40828;DHT22;26549;50.918;5.338;2022-07-06T10:41:49;22.00;82.40
40828;DHT22;26549;50.918;5.338;2022-07-06T10:44:16;21.90;82.70
40828;DHT22;26549;50.918;5.338;2022-07-06T10:46:54;21.50;82.40
40828;DHT22;26549;50.918;5.338;2022-07-06T10:49:21;21.60;83.00
40828;DHT22;26549;50.918;5.338;2022-07-06T10:51:48;21.70;82.30
40828;DHT22;26549;50.918;5.338;2022-07-06T10:54:16;21.80;83.00
40828;DHT22;26549;50.918;5.338;2022-07-06T10:56:47;21.70;83.70
40828;DHT22;26549;50.918;5.338;2022-07-06T10:59:18;21.80;84.50
40828;DHT22;26549;50.918;5.338;2022-07-06T11:02:12;21.70;83.00
40828;DHT22;26549;50.918;5.338;2022-07-06T11:04:43;21.70;84.70
40828;DHT22;26549;50.918;5.338;2022-07-06T11:07:17;21.70;83.30
40828;DHT22;26549;50.918;5.338;2022-07-06T11:10:01;22.10;81.90
40828;DHT22;26549;50.918;5.338;2022-07-06T11:12:27;22.50;83.20
40828;DHT22;26549;50.918;5.338;2022-07-06T11:14:53;22.60;82.30
40828;DHT22;26549;50.918;5.338;2022-07-06T11:17:21;22.60;83.10
40828;DHT22;26549;50.918;5.338;2022-07-06T11:20:09;22.40;84.30
40828;DHT22;26549;50.918;5.338;2022-07-06T11:22:37;22.60;83.00
40828;DHT22;26549;50.918;5.338;2022-07-06T11:25:04;22.70;84.20
40828;DHT22;26549;50.918;5.338;2022-07-06T11:27:31;22.70;82.60
40828;DHT22;26549;50.918;5.338;2022-07-06T11:29:57;22.40;83.60
40828;DHT22;26549;50.918;5.338;2022-07-06T11:32:26;22.50;81.30
40828;DHT22;26549;50.918;5.338;2022-07-06T11:34:52;22.60;81.60
40828;DHT22;26549;50.918;5.338;2022-07-06T11:37:18;22.70;81.60
40828;DHT22;26549;50.918;5.338;2022-07-06T11:39:46;22.30;81.40
40828;DHT22;26549;50.918;5.338;2022-07-06T11:42:16;22.40;82.50
40828;DHT22;26549;50.918;5.338;2022-07-06T11:44:43;22.40;83.30
40828;DHT22;26549;50.918;5.338;2022-07-06T11:47:12;22.40;82.70
40828;DHT22;26549;50.918;5.338;2022-07-06T11:49:39;22.40;83.00
40828;DHT22;26549;50.918;5.338;2022-07-06T11:52:10;22.40;82.80
40828;DHT22;26549;50.918;5.338;2022-07-06T11:54:37;22.40;83.00
40828;DHT22;26549;50.918;5.338;2022-07-06T11:57:03;22.30;82.90
40828;DHT22;26549;50.918;5.338;2022-07-06T11:59:35;22.70;85.00
40828;DHT22;26549;50.918;5.338;2022-07-06T12:02:06;23.00;83.80
40828;DHT22;26549;50.918;5.338;2022-07-06T12:04:33;23.20;83.10
40828;DHT22;26549;50.918;5.338;2022-07-06T12:07:04;23.30;82.70
40828;DHT22;26549;50.918;5.338;2022-07-06T12:09:34;23.40;84.60
40828;DHT22;26549;50.918;5.338;2022-07-06T12:12:01;23.60;83.60
40828;DHT22;26549;50.918;5.338;2022-07-06T12:14:29;23.50;81.20
40828;DHT22;26549;50.918;5.338;2022-07-06T12:16:55;23.60;81.60
40828;DHT22;26549;50.918;5.338;2022-07-06T12:19:24;23.60;82.70
40828;DHT22;26549;50.918;5.338;2022-07-06T12:21:51;23.40;81.60
40828;DHT22;26549;50.918;5.338;2022-07-06T12:24:18;23.30;81.90
40828;DHT22;26549;50.918;5.338;2022-07-06T12:26:45;23.40;82.00
40828;DHT22;26549;50.918;5.338;2022-07-06T12:29:12;23.30;81.30
40828;DHT22;26549;50.918;5.338;2022-07-06T12:31:53;23.30;80.50
40828;DHT22;26549;50.918;5.338;2022-07-06T12:34:27;23.20;80.50
40828;DHT22;26549;50.918;5.338;2022-07-06T12:36:58;23.30;81.60
40828;DHT22;26549;50.918;5.338;2022-07-06T12:39:28;23.40;83.50
40828;DHT22;26549;50.918;5.338;2022-07-06T12:42:01;23.50;83.50
40828;DHT22;26549;50.918;5.338;2022-07-06T12:44:28;23.50;82.40
40828;DHT22;26549;50.918;5.338;2022-07-06T12:47:05;23.50;81.50
40828;DHT22;26549;50.918;5.338;2022-07-06T12:49:32;23.50;82.80
40828;DHT22;26549;50.918;5.338;2022-07-06T12:54:55;23.60;84.50
40828;DHT22;26549;50.918;5.338;2022-07-06T12:57:21;23.70;81.80
40828;DHT22;26549;50.918;5.338;2022-07-06T13:02:24;23.80;78.90
40828;DHT22;26549;50.918;5.338;2022-07-06T13:05:07;23.70;81.20
40828;DHT22;26549;50.918;5.338;2022-07-06T13:07:36;23.70;83.50
40828;DHT22;26549;50.918;5.338;2022-07-06T13:10:04;23.70;83.60
40828;DHT22;26549;50.918;5.338;2022-07-06T13:12:30;23.70;82.00
40828;DHT22;26549;50.918;5.338;2022-07-06T13:14:56;23.60;83.30
40828;DHT22;26549;50.918;5.338;2022-07-06T13:17:22;23.30;83.40
40828;DHT22;26549;50.918;5.338;2022-07-06T13:19:48;23.40;82.20
40828;DHT22;26549;50.918;5.338;2022-07-06T13:22:14;23.30;82.70
40828;DHT22;26549;50.918;5.338;2022-07-06T13:24:40;23.00;81.90
40828;DHT22;26549;50.918;5.338;2022-07-06T13:27:06;23.00;81.50
40828;DHT22;26549;50.918;5.338;2022-07-06T13:29:32;23.20;82.60
40828;DHT22;26549;50.918;5.338;2022-07-06T13:31:58;23.10;82.60
40828;DHT22;26549;50.918;5.338;2022-07-06T13:34:25;23.00;80.90
40828;DHT22;26549;50.918;5.338;2022-07-06T13:36:52;23.30;82.70
40828;DHT22;26549;50.918;5.338;2022-07-06T13:39:18;23.40;82.10
40828;DHT22;26549;50.918;5.338;2022-07-06T13:41:44;23.50;82.20
40828;DHT22;26549;50.918;5.338;2022-07-06T13:44:10;23.70;82.00
40828;DHT22;26549;50.918;5.338;2022-07-06T13:46:38;23.60;81.30
40828;DHT22;26549;50.918;5.338;2022-07-06T13:49:05;23.80;81.70
40828;DHT22;26549;50.918;5.338;2022-07-06T13:51:31;23.50;81.00
40828;DHT22;26549;50.918;5.338;2022-07-06T13:53:59;23.40;81.10
40828;DHT22;26549;50.918;5.338;2022-07-06T13:56:25;23.60;82.00
40828;DHT22;26549;50.918;5.338;2022-07-06T13:58:52;23.70;83.20
40828;DHT22;26549;50.918;5.338;2022-07-06T14:01:19;23.80;80.80
40828;DHT22;26549;50.918;5.338;2022-07-06T14:03:45;23.80;80.10
40828;DHT22;26549;50.918;5.338;2022-07-06T14:06:12;23.80;80.60
40828;DHT22;26549;50.918;5.338;2022-07-06T14:08:39;23.80;81.00
40828;DHT22;26549;50.918;5.338;2022-07-06T14:11:07;23.80;78.90
40828;DHT22;26549;50.918;5.338;2022-07-06T14:13:36;23.80;79.30
40828;DHT22;26549;50.918;5.338;2022-07-06T14:16:04;23.90;79.80
40828;DHT22;26549;50.918;5.338;2022-07-06T14:18:30;24.10;81.30
40828;DHT22;26549;50.918;5.338;2022-07-06T14:20:56;24.20;79.90
40828;DHT22;26549;50.918;5.338;2022-07-06T14:23:22;24.10;79.90
40828;DHT22;26549;50.918;5.338;2022-07-06T14:25:49;24.00;80.60
40828;DHT22;26549;50.918;5.338;2022-07-06T14:28:16;24.10;82.10
40828;DHT22;26549;50.918;5.338;2022-07-06T14:30:45;24.20;81.40
40828;DHT22;26549;50.918;5.338;2022-07-06T14:33:12;24.10;82.20
40828;DHT22;26549;50.918;5.338;2022-07-06T14:35:46;24.20;81.10
40828;DHT22;26549;50.918;5.338;2022-07-06T14:38:19;24.20;80.30
40828;DHT22;26549;50.918;5.338;2022-07-06T14:40:46;24.10;79.30
40828;DHT22;26549;50.918;5.338;2022-07-06T14:43:14;24.10;80.50
40828;DHT22;26549;50.918;5.338;2022-07-06T14:45:40;24.20;79.50
40828;DHT22;26549;50.918;5.338;2022-07-06T14:48:06;24.20;79.60
40828;DHT22;26549;50.918;5.338;2022-07-06T14:50:32;24.10;80.20
40828;DHT22;26549;50.918;5.338;2022-07-06T14:52:57;24.10;79.90
40828;DHT22;26549;50.918;5.338;2022-07-06T14:55:24;24.10;79.40
40828;DHT22;26549;50.918;5.338;2022-07-06T14:57:49;24.10;80.20
40828;DHT22;26549;50.918;5.338;2022-07-06T15:00:16;24.20;82.10
40828;DHT22;26549;50.918;5.338;2022-07-06T15:02:42;24.10;79.70
40828;DHT22;26549;50.918;5.338;2022-07-06T15:05:12;24.30;80.40
40828;DHT22;26549;50.918;5.338;2022-07-06T15:07:38;24.40;78.50
40828;DHT22;26549;50.918;5.338;2022-07-06T15:10:05;24.50;78.50
40828;DHT22;26549;50.918;5.338;2022-07-06T15:12:31;24.60;77.50
40828;DHT22;26549;50.918;5.338;2022-07-06T15:14:57;24.60;77.50
40828;DHT22;26549;50.918;5.338;2022-07-06T15:17:23;24.50;80.10
40828;DHT22;26549;50.918;5.338;2022-07-06T15:19:48;24.50;79.00
40828;DHT22;26549;50.918;5.338;2022-07-06T15:22:14;24.50;79.50
40828;DHT22;26549;50.918;5.338;2022-07-06T15:24:40;24.60;78.80
40828;DHT22;26549;50.918;5.338;2022-07-06T15:27:06;24.70;78.40
40828;DHT22;26549;50.918;5.338;2022-07-06T15:29:33;24.50;78.90
40828;DHT22;26549;50.918;5.338;2022-07-06T15:31:59;24.30;79.00
40828;DHT22;26549;50.918;5.338;2022-07-06T15:34:25;24.40;79.00
40828;DHT22;26549;50.918;5.338;2022-07-06T15:36:51;24.40;79.90
40828;DHT22;26549;50.918;5.338;2022-07-06T15:39:17;24.40;81.80
40828;DHT22;26549;50.918;5.338;2022-07-06T15:41:43;24.40;81.40